createdAt,value
2022-11-16T00:01:33.148Z,100.00
2022-11-16T00:04:02.022Z,100.00
2022-11-16T00:06:29.162Z,100.00
2022-11-16T00:09:21.019Z,100.00
2022-11-16T00:11:58.286Z,100.00
2022-11-16T00:14:27.608Z,100.00
2022-11-16T00:16:54.602Z,100.00
2022-11-16T00:19:25.261Z,100.00
2022-11-16T00:21:55.427Z,100.00
2022-11-16T00:24:23.503Z,100.00
2022-11-16T00:26:53.267Z,100.00
2022-11-16T00:29:22.986Z,100.00
2022-11-16T00:31:54.305Z,100.00
2022-11-16T00:34:24.124Z,100.00
2022-11-16T00:36:54.495Z,100.00
2022-11-16T00:39:24.312Z,100.00
2022-11-16T00:41:54.770Z,100.00
2022-11-16T00:44:22.554Z,100.00
2022-11-16T00:46:49.177Z,100.00
2022-11-16T00:49:16.167Z,100.00
2022-11-16T00:51:42.725Z,100.00
2022-11-16T00:54:09.581Z,100.00
2022-11-16T00:56:37.080Z,100.00
2022-11-16T00:59:03.964Z,100.00
2022-11-16T01:01:30.677Z,99.04
2022-11-16T01:03:57.284Z,98.75
2022-11-16T01:06:26.767Z,98.78
2022-11-16T01:08:56.109Z,99.86
2022-11-16T01:11:41.388Z,99.50
2022-11-16T01:14:09.253Z,97.70
2022-11-16T01:16:36.411Z,97.25
2022-11-16T01:19:06.406Z,98.04
2022-11-16T01:21:33.843Z,98.31
2022-11-16T01:24:00.454Z,99.40
2022-11-16T01:26:27.082Z,97.81
2022-11-16T01:28:57.237Z,97.93
2022-11-16T01:31:27.051Z,94.97
2022-11-16T01:33:57.255Z,96.40
2022-11-16T01:36:28.065Z,96.41
2022-11-16T01:38:57.692Z,96.30
2022-11-16T01:41:26.662Z,94.36
2022-11-16T01:43:58.794Z,95.23
2022-11-16T01:46:29.641Z,95.16
2022-11-16T01:49:06.665Z,96.32
2022-11-16T01:51:34.196Z,96.69
2022-11-16T01:54:03.008Z,97.60
2022-11-16T01:56:32.575Z,97.09
2022-11-16T01:58:59.341Z,97.78
2022-11-16T02:01:29.496Z,98.12
2022-11-16T02:04:01.738Z,99.76
2022-11-16T02:06:28.271Z,100.00
2022-11-16T02:09:47.077Z,100.00
2022-11-16T02:12:45.400Z,100.00
2022-11-16T02:15:21.302Z,100.00
2022-11-16T02:18:21.483Z,100.00
2022-11-16T02:20:50.994Z,100.00
2022-11-16T02:23:36.103Z,100.00
2022-11-16T02:26:35.902Z,100.00
2022-11-16T02:29:29.288Z,100.00
2022-11-16T02:32:05.177Z,100.00
2022-11-16T02:34:36.926Z,100.00
2022-11-16T02:37:07.198Z,100.00
2022-11-16T02:39:36.963Z,100.00
2022-11-16T02:42:08.252Z,100.00
2022-11-16T02:44:40.231Z,100.00
2022-11-16T02:47:11.775Z,100.00
2022-11-16T02:49:44.287Z,100.00
2022-11-16T02:52:13.731Z,100.00
2022-11-16T02:54:40.300Z,100.00
2022-11-16T02:57:06.752Z,100.00
2022-11-16T02:59:36.224Z,100.00
2022-11-16T03:02:09.769Z,100.00
2022-11-16T03:04:43.133Z,100.00
2022-11-16T03:07:12.680Z,100.00
2022-11-16T03:09:42.275Z,100.00
2022-11-16T03:12:14.201Z,100.00
2022-11-16T03:14:56.012Z,100.00
2022-11-16T03:17:30.289Z,100.00
2022-11-16T03:20:03.198Z,100.00
2022-11-16T03:22:39.381Z,100.00
2022-11-16T03:25:07.267Z,100.00
2022-11-16T03:28:07.237Z,100.00
2022-11-16T03:30:39.852Z,100.00
2022-11-16T03:33:14.047Z,100.00
2022-11-16T03:35:56.731Z,100.00
2022-11-16T03:38:26.134Z,100.00
2022-11-16T03:40:57.621Z,100.00
2022-11-16T03:43:25.713Z,100.00
2022-11-16T03:45:53.224Z,100.00
2022-11-16T03:48:19.903Z,100.00
2022-11-16T03:50:46.618Z,100.00
2022-11-16T03:53:13.213Z,100.00
2022-11-16T03:55:39.761Z,100.00
2022-11-16T03:58:06.423Z,100.00
2022-11-16T04:00:36.262Z,100.00
2022-11-16T04:03:06.003Z,99.74
2022-11-16T04:05:53.908Z,100.00
2022-11-16T04:08:39.005Z,99.45
2022-11-16T04:11:24.797Z,100.00
2022-11-16T04:14:10.332Z,100.00
2022-11-16T04:16:55.262Z,100.00
2022-11-16T04:19:40.607Z,100.00
2022-11-16T04:22:36.018Z,100.00
2022-11-16T04:25:12.007Z,100.00
2022-11-16T04:28:16.941Z,100.00
2022-11-16T04:31:07.707Z,100.00
2022-11-16T04:33:55.473Z,98.68
2022-11-16T04:36:40.986Z,98.41
2022-11-16T04:39:07.835Z,97.92
2022-11-16T04:41:54.811Z,98.80
2022-11-16T04:44:24.693Z,100.00
2022-11-16T04:47:08.917Z,100.00
2022-11-16T04:49:38.376Z,99.34
2022-11-16T04:52:08.968Z,99.77
2022-11-16T04:54:38.694Z,100.00
2022-11-16T04:57:06.979Z,100.00
2022-11-16T04:59:33.504Z,100.00
2022-11-16T05:02:09.133Z,100.00
2022-11-16T05:04:44.872Z,100.00
2022-11-16T05:07:13.997Z,100.00
2022-11-16T05:09:45.014Z,100.00
2022-11-16T05:12:17.664Z,100.00
2022-11-16T05:14:44.530Z,100.00
2022-11-16T05:17:11.743Z,100.00
2022-11-16T05:19:59.561Z,100.00
2022-11-16T05:22:26.462Z,100.00
2022-11-16T05:24:53.294Z,100.00
2022-11-16T05:27:21.653Z,100.00
2022-11-16T05:29:49.771Z,100.00
2022-11-16T05:32:16.602Z,100.00
2022-11-16T05:34:43.209Z,100.00
2022-11-16T05:37:10.086Z,100.00
2022-11-16T05:39:39.268Z,100.00
2022-11-16T05:42:10.369Z,100.00
2022-11-16T05:44:39.998Z,100.00
2022-11-16T05:47:06.568Z,100.00
2022-11-16T05:49:33.161Z,100.00
2022-11-16T05:51:59.767Z,100.00
2022-11-16T05:54:26.551Z,100.00
2022-11-16T05:56:54.851Z,100.00
2022-11-16T05:59:22.783Z,100.00
2022-11-16T06:01:50.364Z,100.00
2022-11-16T06:06:58.151Z,100.00
2022-11-16T06:09:24.729Z,98.98
2022-11-16T06:11:51.520Z,98.75
2022-11-16T06:14:18.043Z,99.75
2022-11-16T06:16:44.549Z,100.00
2022-11-16T06:19:13.777Z,100.00
2022-11-16T06:21:43.142Z,100.00
2022-11-16T06:24:13.327Z,100.00
2022-11-16T06:26:41.096Z,100.00
2022-11-16T06:29:07.662Z,100.00
2022-11-16T06:31:34.245Z,99.75
2022-11-16T06:34:00.874Z,100.00
2022-11-16T06:36:27.494Z,100.00
2022-11-16T06:38:54.057Z,100.00
2022-11-16T06:41:20.937Z,100.00
2022-11-16T06:43:47.549Z,100.00
2022-11-16T06:46:14.267Z,100.00
2022-11-16T06:48:41.085Z,100.00
2022-11-16T06:51:08.125Z,100.00
2022-11-16T06:53:35.146Z,100.00
2022-11-16T06:56:06.169Z,100.00
2022-11-16T06:58:33.525Z,99.89
2022-11-16T07:01:14.171Z,99.70
2022-11-16T07:03:43.053Z,99.98
2022-11-16T07:06:14.788Z,100.00
2022-11-16T07:08:43.514Z,100.00
2022-11-16T07:11:12.027Z,100.00
2022-11-16T07:13:39.182Z,100.00
2022-11-16T07:16:12.255Z,100.00
2022-11-16T07:18:45.183Z,100.00
2022-11-16T07:21:14.878Z,99.28
2022-11-16T07:23:45.897Z,99.75
2022-11-16T07:26:15.345Z,100.00
2022-11-16T07:28:48.104Z,100.00
2022-11-16T07:31:16.178Z,99.86
2022-11-16T07:33:43.710Z,98.94
2022-11-16T07:36:17.254Z,98.54
2022-11-16T07:38:47.255Z,97.99
2022-11-16T07:41:17.406Z,97.92
2022-11-16T07:43:52.756Z,97.04
2022-11-16T07:46:45.899Z,94.21
2022-11-16T07:49:11.396Z,100.00
2022-11-16T07:51:38.373Z,100.00
2022-11-16T07:54:06.740Z,98.72
2022-11-16T07:56:33.588Z,96.51
2022-11-16T07:59:01.609Z,95.80
2022-11-16T08:01:28.447Z,89.17
2022-11-16T08:03:55.221Z,78.56
2022-11-16T08:06:25.576Z,72.42
2022-11-16T08:08:57.832Z,69.14
2022-11-16T08:11:25.361Z,66.20
2022-11-16T08:13:52.287Z,66.64
2022-11-16T08:16:21.497Z,68.56
2022-11-16T08:18:48.487Z,70.43
2022-11-16T08:21:16.475Z,73.63
2022-11-16T08:23:45.391Z,76.07
2022-11-16T08:26:19.732Z,77.20
2022-11-16T08:28:47.860Z,78.31
2022-11-16T08:31:21.090Z,79.14
2022-11-16T08:33:48.141Z,80.10
2022-11-16T08:36:18.811Z,80.72
2022-11-16T08:38:48.164Z,82.96
2022-11-16T08:41:16.505Z,83.02
2022-11-16T08:43:45.200Z,83.91
2022-11-16T08:46:11.792Z,83.87
2022-11-16T08:48:39.062Z,83.67
2022-11-16T08:51:21.326Z,84.20
2022-11-16T08:53:49.470Z,84.23
2022-11-16T08:56:18.436Z,83.40
2022-11-16T08:58:50.301Z,84.54
2022-11-16T09:01:21.810Z,84.14
2022-11-16T09:04:24.686Z,84.26
2022-11-16T09:06:52.948Z,85.49
2022-11-16T09:09:19.544Z,86.11
2022-11-16T09:11:46.138Z,87.05
2022-11-16T09:14:15.242Z,87.57
2022-11-16T09:16:41.925Z,88.12
2022-11-16T09:19:08.558Z,87.81
2022-11-16T09:21:37.561Z,88.41
2022-11-16T09:24:04.537Z,88.83
2022-11-16T09:26:31.460Z,87.02
2022-11-16T09:29:00.845Z,86.01
2022-11-16T09:31:29.405Z,85.74
2022-11-16T09:33:58.867Z,84.68
2022-11-16T09:36:28.294Z,83.25
2022-11-16T09:39:25.931Z,79.69
2022-11-16T09:41:50.646Z,78.76
2022-11-16T09:44:34.404Z,77.52
2022-11-16T09:47:02.252Z,77.31
2022-11-16T09:49:38.175Z,77.84
2022-11-16T09:52:10.791Z,80.02
2022-11-16T09:54:43.981Z,80.35
2022-11-16T09:57:16.759Z,79.99
2022-11-16T09:59:49.988Z,80.63
2022-11-16T10:02:32.525Z,80.50
2022-11-16T10:05:08.221Z,80.10
2022-11-16T10:07:52.661Z,81.36
2022-11-16T10:10:36.113Z,80.90
2022-11-16T10:13:39.851Z,80.03
2022-11-16T10:16:45.368Z,79.98
2022-11-16T10:19:39.658Z,79.47
2022-11-16T10:22:21.682Z,77.21
2022-11-16T10:25:07.160Z,74.08
2022-11-16T10:27:55.525Z,68.78
2022-11-16T10:30:23.126Z,64.82
2022-11-16T10:32:53.691Z,64.98
2022-11-16T10:35:29.844Z,63.33
2022-11-16T10:37:59.501Z,62.78
2022-11-16T10:40:36.187Z,63.07
2022-11-16T10:43:16.193Z,62.84
2022-11-16T10:46:20.267Z,61.53
2022-11-16T10:48:58.604Z,61.20
2022-11-16T10:51:25.246Z,58.95
2022-11-16T10:53:53.206Z,60.55
2022-11-16T10:56:25.774Z,59.92
2022-11-16T10:58:55.612Z,57.79
2022-11-16T11:01:44.862Z,57.35
2022-11-16T11:04:28.962Z,55.43
2022-11-16T11:06:58.760Z,56.46
2022-11-16T11:09:34.713Z,55.62
2022-11-16T11:12:53.848Z,56.12
2022-11-16T11:15:27.123Z,55.63
2022-11-16T11:18:15.819Z,55.21
2022-11-16T11:20:46.877Z,54.21
2022-11-16T11:23:17.928Z,54.17
2022-11-16T11:25:54.934Z,53.33
2022-11-16T11:28:21.466Z,52.28
2022-11-16T11:31:11.606Z,52.87
2022-11-16T11:33:46.004Z,52.24
2022-11-16T11:36:25.220Z,53.42
2022-11-16T11:39:16.597Z,53.18
2022-11-16T11:41:46.279Z,53.08
2022-11-16T11:44:15.130Z,53.89
2022-11-16T11:49:52.316Z,57.10
2022-11-16T11:52:32.189Z,55.28
2022-11-16T11:55:00.422Z,53.18
2022-11-16T11:57:26.993Z,51.19
2022-11-16T11:59:54.729Z,51.33
2022-11-16T12:02:46.893Z,51.38
2022-11-16T12:05:47.726Z,50.94
2022-11-16T12:08:41.832Z,56.57
2022-11-16T12:11:46.036Z,56.90
2022-11-16T12:14:37.495Z,52.03
2022-11-16T12:17:21.059Z,54.36
2022-11-16T12:20:00.692Z,54.55
2022-11-16T12:23:03.742Z,55.58
2022-11-16T12:25:47.392Z,56.63
2022-11-16T12:28:35.111Z,57.67
2022-11-16T12:31:06.094Z,57.38
2022-11-16T12:33:53.949Z,54.70
2022-11-16T12:36:58.702Z,52.98
2022-11-16T12:39:31.176Z,50.70
2022-11-16T12:42:12.535Z,50.05
2022-11-16T12:45:31.851Z,49.45
2022-11-16T12:48:20.707Z,50.50
2022-11-16T12:51:09.074Z,51.18
2022-11-16T12:53:47.619Z,52.33
2022-11-16T12:56:36.452Z,51.47
2022-11-16T12:59:32.345Z,52.66
2022-11-16T13:02:28.155Z,51.64
2022-11-16T13:05:02.021Z,52.91
2022-11-16T13:07:37.023Z,54.07
2022-11-16T13:10:30.408Z,54.83
2022-11-16T13:15:53.271Z,56.82
2022-11-16T13:18:23.129Z,57.17
2022-11-16T13:21:06.798Z,55.17
2022-11-16T13:24:02.778Z,53.10
2022-11-16T13:26:56.019Z,52.18
2022-11-16T13:29:30.424Z,51.50
2022-11-16T13:32:03.277Z,51.21
2022-11-16T13:34:35.773Z,52.93
2022-11-16T13:37:34.185Z,53.57
2022-11-16T13:40:00.751Z,55.28
2022-11-16T13:42:28.192Z,54.86
2022-11-16T13:45:07.100Z,56.74
2022-11-16T13:47:34.645Z,56.45
2022-11-16T13:50:16.334Z,58.15
2022-11-16T13:55:35.763Z,59.21
2022-11-16T13:58:07.635Z,57.70
2022-11-16T14:00:40.393Z,55.16
2022-11-16T14:03:16.034Z,54.62
2022-11-16T14:05:52.301Z,55.79
2022-11-16T14:08:24.799Z,56.23
2022-11-16T14:10:51.732Z,57.30
2022-11-16T14:13:30.504Z,59.00
2022-11-16T14:16:15.306Z,59.45
2022-11-16T14:18:43.429Z,60.43
2022-11-16T14:21:46.054Z,60.15
2022-11-16T14:24:26.501Z,61.02
2022-11-16T14:27:08.473Z,62.14
2022-11-16T14:29:46.836Z,63.98
2022-11-16T14:32:24.663Z,67.63
2022-11-16T14:34:54.674Z,69.12
2022-11-16T14:37:30.377Z,72.99
2022-11-16T14:40:17.217Z,75.33
2022-11-16T14:43:15.371Z,75.49
2022-11-16T14:45:48.578Z,74.98
2022-11-16T14:48:23.833Z,74.15
2022-11-16T14:51:02.242Z,74.84
2022-11-16T14:53:29.853Z,75.13
2022-11-16T14:56:14.623Z,75.64
2022-11-16T14:58:57.251Z,76.81
2022-11-16T15:01:38.476Z,75.24
2022-11-16T15:04:09.400Z,74.86
2022-11-16T15:06:49.166Z,76.52
2022-11-16T15:09:28.713Z,78.10
2022-11-16T15:12:14.682Z,83.90
2022-11-16T15:14:54.500Z,80.44
2022-11-16T15:17:30.071Z,82.11
2022-11-16T15:20:16.366Z,81.13
2022-11-16T15:22:45.835Z,81.50
2022-11-16T15:25:31.407Z,80.59
2022-11-16T15:28:03.641Z,80.27
2022-11-16T15:30:34.418Z,79.77
2022-11-16T15:33:10.820Z,80.13
2022-11-16T15:35:38.803Z,81.48
2022-11-16T15:38:13.849Z,81.28
2022-11-16T15:40:45.064Z,81.28
2022-11-16T15:43:13.473Z,80.38
2022-11-16T15:45:42.757Z,80.56
2022-11-16T15:48:19.019Z,80.08
2022-11-16T15:51:14.844Z,81.06
2022-11-16T15:53:47.202Z,80.35
2022-11-16T15:56:25.712Z,81.28
2022-11-16T15:58:58.086Z,82.50
2022-11-16T16:01:29.390Z,81.96
2022-11-16T16:04:02.911Z,82.43
2022-11-16T16:06:56.880Z,83.67
2022-11-16T16:09:26.320Z,82.96
2022-11-16T16:11:55.634Z,82.52
2022-11-16T16:14:31.276Z,83.09
2022-11-16T16:16:59.679Z,83.03
2022-11-16T16:19:55.421Z,83.23
2022-11-16T16:22:33.860Z,84.32
2022-11-16T16:25:04.227Z,85.43
2022-11-16T16:27:32.585Z,86.20
2022-11-16T16:30:04.934Z,85.67
2022-11-16T16:32:34.464Z,85.74
2022-11-16T16:35:03.881Z,85.82
2022-11-16T16:37:32.187Z,86.28
2022-11-16T16:39:59.784Z,86.30
2022-11-16T16:42:26.582Z,85.32
2022-11-16T16:44:59.542Z,84.23
2022-11-16T16:47:26.286Z,85.13
2022-11-16T16:49:56.654Z,85.33
2022-11-16T16:52:25.873Z,84.93
2022-11-16T16:54:56.479Z,84.75
2022-11-16T16:57:26.497Z,83.76
2022-11-16T16:59:56.772Z,84.29
2022-11-16T17:02:27.784Z,84.05
2022-11-16T17:04:55.101Z,84.00
2022-11-16T17:07:24.857Z,84.33
2022-11-16T17:09:55.967Z,85.19
2022-11-16T17:12:26.050Z,84.45
2022-11-16T17:14:56.875Z,84.88
2022-11-16T17:17:25.300Z,86.50
2022-11-16T17:19:56.633Z,86.81
2022-11-16T17:22:25.874Z,88.79
2022-11-16T17:24:54.507Z,90.06
2022-11-16T17:27:21.252Z,90.43
2022-11-16T17:29:47.782Z,90.26
2022-11-16T17:32:14.429Z,89.07
2022-11-16T17:34:41.526Z,89.44
2022-11-16T17:37:08.148Z,88.94
2022-11-16T17:39:35.418Z,87.06
2022-11-16T17:42:02.095Z,86.99
2022-11-16T17:44:30.915Z,87.21
2022-11-16T17:46:57.832Z,86.27
2022-11-16T17:49:27.422Z,86.19
2022-11-16T17:51:59.932Z,87.71
2022-11-16T17:54:26.499Z,86.81
2022-11-16T17:56:55.041Z,87.44
2022-11-16T17:59:28.998Z,86.58
2022-11-16T18:01:57.660Z,83.50
2022-11-16T18:04:25.311Z,82.90
2022-11-16T18:06:52.523Z,82.41
2022-11-16T18:09:19.224Z,84.33
2022-11-16T18:11:45.786Z,83.49
2022-11-16T18:14:12.348Z,82.14
2022-11-16T18:16:42.333Z,82.04
2022-11-16T18:19:20.957Z,81.62
2022-11-16T18:21:48.809Z,80.43
2022-11-16T18:24:15.314Z,78.87
2022-11-16T18:26:42.258Z,78.88
2022-11-16T18:29:12.735Z,78.80
2022-11-16T18:31:40.249Z,78.41
2022-11-16T18:34:06.964Z,77.73
2022-11-16T18:36:33.856Z,78.03
2022-11-16T18:39:00.389Z,78.01
2022-11-16T18:41:29.857Z,77.57
2022-11-16T18:44:01.159Z,76.67
2022-11-16T18:46:29.824Z,77.77
2022-11-16T18:48:56.804Z,79.31
2022-11-16T18:51:27.584Z,78.54
2022-11-16T18:53:57.757Z,79.96
2022-11-16T18:56:27.517Z,85.04
2022-11-16T18:59:00.985Z,80.88
2022-11-16T19:01:28.363Z,82.17
2022-11-16T19:03:58.031Z,82.47
2022-11-16T19:06:26.858Z,81.79
2022-11-16T19:08:59.588Z,82.30
2022-11-16T19:11:29.865Z,82.32
2022-11-16T19:14:03.912Z,80.43
2022-11-16T19:16:31.485Z,81.61
2022-11-16T19:18:58.875Z,81.68
2022-11-16T19:21:30.161Z,81.40
2022-11-16T19:23:57.916Z,81.35
2022-11-16T19:26:28.770Z,80.21
2022-11-16T19:28:58.943Z,80.79
2022-11-16T19:31:29.329Z,79.96
2022-11-16T19:33:57.791Z,79.39
2022-11-16T19:36:28.896Z,78.19
2022-11-16T19:38:59.235Z,78.69
2022-11-16T19:41:27.264Z,90.18
2022-11-16T19:43:58.984Z,78.14
2022-11-16T19:46:31.225Z,77.17
2022-11-16T19:48:58.830Z,76.54
2022-11-16T19:51:33.322Z,76.21
2022-11-16T19:54:01.436Z,75.50
2022-11-16T19:56:28.114Z,75.33
2022-11-16T19:58:57.692Z,74.29
2022-11-16T20:01:48.274Z,74.01
2022-11-16T20:04:16.215Z,71.06
2022-11-16T20:06:44.170Z,71.33
2022-11-16T20:09:12.208Z,71.45
2022-11-16T20:11:40.808Z,70.72
2022-11-16T20:14:10.436Z,69.66
2022-11-16T20:16:39.717Z,69.74
2022-11-16T20:19:10.115Z,68.57
2022-11-16T20:21:39.308Z,68.15
2022-11-16T20:24:08.958Z,67.75
2022-11-16T20:26:40.263Z,67.92
2022-11-16T20:29:06.845Z,67.80
2022-11-16T20:31:33.817Z,67.94
2022-11-16T20:34:05.384Z,68.60
2022-11-16T20:36:33.338Z,68.44
2022-11-16T20:39:03.080Z,68.52
2022-11-16T20:41:32.159Z,68.21
2022-11-16T20:44:00.208Z,67.15
2022-11-16T20:46:29.915Z,67.83
2022-11-16T20:49:01.789Z,67.29
2022-11-16T20:51:29.846Z,66.06
2022-11-16T20:53:59.552Z,66.82
2022-11-16T20:56:28.694Z,66.83
2022-11-16T20:58:59.195Z,66.40
2022-11-16T21:01:31.519Z,65.90
2022-11-16T21:04:06.329Z,66.69
2022-11-16T21:06:33.534Z,66.18
2022-11-16T21:09:00.482Z,66.32
2022-11-16T21:11:54.079Z,67.04
2022-11-16T21:14:21.126Z,66.56
2022-11-16T21:16:47.905Z,67.39
2022-11-16T21:19:15.064Z,67.09
2022-11-16T21:21:41.748Z,66.81
2022-11-16T21:24:09.636Z,66.31
2022-11-16T21:26:37.364Z,66.57
2022-11-16T21:29:04.388Z,66.41
2022-11-16T21:31:34.271Z,66.31
2022-11-16T21:34:01.375Z,65.99
2022-11-16T21:36:32.355Z,65.79
2022-11-16T21:39:01.665Z,66.07
2022-11-16T21:41:30.889Z,66.49
2022-11-16T21:44:00.539Z,65.70
2022-11-16T21:46:30.570Z,66.11
2022-11-16T21:49:01.643Z,64.68
2022-11-16T21:51:31.362Z,65.10
2022-11-16T21:54:01.050Z,64.70
2022-11-16T21:56:30.529Z,65.05
2022-11-16T21:58:59.412Z,65.41
2022-11-16T22:01:45.900Z,64.99
2022-11-16T22:04:30.927Z,65.02
2022-11-16T22:07:16.111Z,64.62
2022-11-16T22:09:42.775Z,65.15
2022-11-16T22:12:09.296Z,64.90
2022-11-16T22:14:35.822Z,64.82
2022-11-16T22:17:02.879Z,65.71
2022-11-16T22:19:32.553Z,65.27
2022-11-16T22:22:02.266Z,65.45
2022-11-16T22:24:31.121Z,66.75
2022-11-16T22:27:00.480Z,66.36
2022-11-16T22:29:27.370Z,66.82
2022-11-16T22:31:54.289Z,68.12
2022-11-16T22:34:21.202Z,68.24
2022-11-16T22:36:48.231Z,68.98
2022-11-16T22:39:15.210Z,69.51
2022-11-16T22:41:41.934Z,71.16
2022-11-16T22:44:08.515Z,72.27
2022-11-16T22:46:35.406Z,72.48
2022-11-16T22:49:05.051Z,73.60
2022-11-16T22:51:34.833Z,73.25
2022-11-16T22:54:05.375Z,73.34
2022-11-16T22:56:34.298Z,73.03
2022-11-16T22:59:05.729Z,73.38
2022-11-16T23:01:36.548Z,73.26
2022-11-16T23:04:03.903Z,72.75
2022-11-16T23:06:32.049Z,72.21
2022-11-16T23:08:58.701Z,71.80
2022-11-16T23:11:45.427Z,71.83
2022-11-16T23:14:33.435Z,70.56
2022-11-16T23:17:00.388Z,70.25
2022-11-16T23:19:46.570Z,69.67
2022-11-16T23:22:40.893Z,69.72
2022-11-16T23:25:29.284Z,70.52
2022-11-16T23:27:55.805Z,69.81
2022-11-16T23:30:23.414Z,70.15
2022-11-16T23:32:50.018Z,70.53
2022-11-16T23:35:16.968Z,71.91
2022-11-16T23:37:53.918Z,72.36
2022-11-16T23:40:22.783Z,71.30
2022-11-16T23:43:07.890Z,71.14
2022-11-16T23:45:34.659Z,72.84
2022-11-16T23:48:01.258Z,72.55
2022-11-16T23:50:27.873Z,71.67
2022-11-16T23:52:54.389Z,70.72
2022-11-16T23:55:23.074Z,71.48
2022-11-16T23:57:50.353Z,71.63
